Time;durP1;ratioP1;P1;durP2;ratioP2;P2;SDS_P1;SDS_P2;PMS_P1;PMS_P2;Temp;Humidity;BMP_temperature;BMP_pressure;BME280_temperature;BME280_humidity;BME280_pressure;Samples;Min_cycle;Max_cycle;Signal;HPM_P1;HPM_P2
2023/04/11 00:02:22;;;;;;;9.90;9.60;;;10.30;99.90;;;;;;5066047;28;20727;-80
2023/04/11 00:04:53;;;;;;;9.90;9.60;;;10.30;99.90;;;;;;5071957;28;20246;-81
2023/04/11 00:07:21;;;;;;;10.20;9.90;;;10.40;99.90;;;;;;5066507;28;20223;-81
2023/04/11 00:09:51;;;;;;;10.00;9.70;;;10.30;99.90;;;;;;5065461;28;20218;-81
2023/04/11 00:12:21;;;;;;;9.87;9.57;;;10.30;99.90;;;;;;5064880;28;20289;-80
2023/04/11 00:14:55;;;;;;;10.00;9.70;;;10.30;99.90;;;;;;5065392;28;20231;-81
2023/04/11 00:17:24;;;;;;;10.00;9.70;;;10.40;99.90;;;;;;5064623;28;20287;-81
2023/04/11 00:19:52;;;;;;;10.10;9.80;;;10.40;99.90;;;;;;5064666;28;20270;-81
2023/04/11 00:22:32;;;;;;;9.90;9.60;;;10.30;99.90;;;;;;5064799;28;20235;-81
2023/04/11 00:24:59;;;;;;;10.03;9.73;;;10.40;99.90;;;;;;5064118;28;20317;-81
2023/04/11 00:27:27;;;;;;;9.93;9.63;;;10.40;99.90;;;;;;5064459;28;20269;-81
2023/04/11 00:29:58;;;;;;;10.00;9.70;;;10.30;99.90;;;;;;5064777;28;20228;-81
2023/04/11 00:32:26;;;;;;;10.00;9.70;;;10.30;99.90;;;;;;5064509;28;20321;-81
2023/04/11 00:34:54;;;;;;;9.83;9.53;;;10.30;99.90;;;;;;5064597;28;20230;-80
2023/04/11 00:37:24;;;;;;;10.17;9.87;;;10.30;99.90;;;;;;5064246;28;20237;-81
2023/04/11 00:39:54;;;;;;;10.10;9.80;;;10.30;99.90;;;;;;5065306;28;20218;-81
2023/04/11 00:42:23;;;;;;;10.17;9.87;;;10.30;99.90;;;;;;5065170;28;20234;-81
2023/04/11 00:44:52;;;;;;;10.00;9.70;;;10.30;99.90;;;;;;5065468;28;20266;-81
2023/04/11 00:47:23;;;;;;;9.97;9.67;;;10.30;99.90;;;;;;5065904;28;20249;-81
2023/04/11 00:49:51;;;;;;;9.93;9.63;;;10.30;99.90;;;;;;5066647;28;20242;-81
2023/04/11 00:52:20;;;;;;;9.90;9.60;;;10.30;99.90;;;;;;5066700;28;20270;-81
2023/04/11 00:54:51;;;;;;;10.20;9.90;;;10.30;99.90;;;;;;5069671;28;20298;-80
2023/04/11 00:57:20;;;;;;;10.10;9.80;;;10.30;99.90;;;;;;5076579;28;20233;-81
2023/04/11 00:59:50;;;;;;;9.90;9.60;;;10.30;99.90;;;;;;5078668;28;20246;-80
2023/04/11 01:02:19;;;;;;;9.90;9.60;;;10.30;99.90;;;;;;5078903;28;20262;-80
2023/04/11 01:04:56;;;;;;;10.13;9.83;;;10.30;99.90;;;;;;5079244;28;20211;-81
2023/04/11 01:07:27;;;;;;;10.30;10.00;;;10.30;99.90;;;;;;5079684;28;20207;-80
2023/04/11 01:09:56;;;;;;;9.97;9.67;;;10.30;99.90;;;;;;5079431;28;20237;-79
2023/04/11 01:12:25;;;;;;;9.87;9.57;;;10.30;99.90;;;;;;5078348;28;20302;-80
2023/04/11 01:14:54;;;;;;;10.20;9.90;;;10.30;99.90;;;;;;5079375;28;20229;-81
2023/04/11 01:17:24;;;;;;;10.10;9.80;;;10.30;99.90;;;;;;5074174;28;20211;-81
2023/04/11 01:20:06;;;;;;;9.87;9.57;;;10.30;99.90;;;;;;5079518;28;20231;-81
2023/04/11 01:22:34;;;;;;;10.10;9.80;;;10.40;99.90;;;;;;5079423;28;20235;-81
2023/04/11 01:25:05;;;;;;;10.30;10.00;;;10.40;99.90;;;;;;5079205;28;20222;-81
2023/04/11 01:27:33;;;;;;;10.10;9.80;;;10.40;99.90;;;;;;5078960;28;20223;-81
2023/04/11 01:30:00;;;;;;;9.97;9.67;;;10.40;99.90;;;;;;5078606;28;20215;-82
2023/04/11 01:32:30;;;;;;;10.10;9.80;;;10.30;99.90;;;;;;5071506;28;20239;-81
2023/04/11 01:34:59;;;;;;;9.93;9.63;;;10.30;99.90;;;;;;5063177;28;20258;-82
2023/04/11 01:37:28;;;;;;;9.80;9.50;;;10.30;99.90;;;;;;5062636;28;20382;-81
2023/04/11 01:39:58;;;;;;;9.83;9.53;;;10.20;99.90;;;;;;5062496;28;20231;-83
2023/04/11 01:42:29;;;;;;;9.80;9.50;;;10.10;99.90;;;;;;5062556;28;20243;-81
2023/04/11 01:44:57;;;;;;;9.93;9.63;;;10.00;99.90;;;;;;5063874;28;20239;-81
2023/04/11 01:47:26;;;;;;;9.83;9.53;;;10.00;99.90;;;;;;5063658;28;20222;-82
2023/04/11 01:49:55;;;;;;;10.10;9.80;;;10.00;99.90;;;;;;5063196;28;20226;-82
2023/04/11 01:52:27;;;;;;;10.10;9.80;;;10.00;99.90;;;;;;5063839;28;20234;-81
2023/04/11 01:54:56;;;;;;;10.10;9.80;;;10.00;99.90;;;;;;5064844;28;20306;-81
2023/04/11 01:57:26;;;;;;;9.97;9.67;;;9.90;99.90;;;;;;5063477;28;20322;-81
2023/04/11 01:59:56;;;;;;;10.40;10.10;;;9.90;99.90;;;;;;5063127;28;20291;-81
2023/04/11 02:02:24;;;;;;;10.30;10.00;;;10.00;99.90;;;;;;5062627;28;20302;-82
2023/04/11 02:04:53;;;;;;;10.70;10.40;;;10.00;99.90;;;;;;5064962;28;20231;-82
2023/04/11 02:07:23;;;;;;;10.80;10.50;;;10.00;99.90;;;;;;5065847;28;20303;-82
2023/04/11 02:09:52;;;;;;;10.77;10.47;;;10.00;99.90;;;;;;5065530;28;20231;-82
2023/04/11 02:12:22;;;;;;;10.57;10.27;;;10.00;99.90;;;;;;5065672;28;20245;-82
2023/04/11 02:14:51;;;;;;;10.40;10.10;;;10.00;99.90;;;;;;5066113;28;20343;-82
2023/04/11 02:17:24;;;;;;;10.60;10.30;;;10.00;99.90;;;;;;5065697;28;20310;-82
2023/04/11 02:19:53;;;;;;;10.50;10.20;;;9.90;99.90;;;;;;5065917;28;20243;-81
2023/04/11 02:22:21;;;;;;;10.33;10.03;;;9.90;99.90;;;;;;5065536;28;20234;-82
2023/04/11 02:24:50;;;;;;;10.40;10.10;;;9.90;99.90;;;;;;5066128;28;20331;-82
2023/04/11 02:27:18;;;;;;;10.60;10.30;;;9.80;99.90;;;;;;5065259;28;20249;-82
2023/04/11 02:29:48;;;;;;;10.47;10.17;;;9.70;99.90;;;;;;5065121;28;20283;-82
2023/04/11 02:32:18;;;;;;;10.50;10.20;;;9.60;99.90;;;;;;5065039;28;20270;-82
2023/04/11 02:34:49;;;;;;;10.30;10.00;;;9.60;99.90;;;;;;5065373;28;20310;-82
2023/04/11 02:37:17;;;;;;;10.23;9.93;;;9.50;99.90;;;;;;5064767;28;20261;-82
2023/04/11 02:39:46;;;;;;;10.10;9.80;;;9.50;99.90;;;;;;5064689;28;20294;-82
2023/04/11 02:42:13;;;;;;;10.40;10.10;;;9.50;99.90;;;;;;5065431;28;20238;-80
2023/04/11 02:44:46;;;;;;;10.40;10.10;;;9.50;99.90;;;;;;5064292;28;20274;-80
2023/04/11 02:47:14;;;;;;;10.23;9.93;;;9.40;99.90;;;;;;5064930;28;20215;-81
2023/04/11 02:49:43;;;;;;;10.30;10.00;;;9.40;99.90;;;;;;5065095;28;20229;-81
2023/04/11 02:52:16;;;;;;;10.40;10.10;;;9.30;99.90;;;;;;5065615;28;20266;-81
2023/04/11 02:54:44;;;;;;;10.40;10.10;;;9.30;99.90;;;;;;5065601;28;20227;-81
2023/04/11 02:57:12;;;;;;;10.30;10.00;;;9.30;99.90;;;;;;5063627;28;20243;-81
2023/04/11 02:59:41;;;;;;;10.17;9.87;;;9.30;99.90;;;;;;5064868;28;20290;-81
2023/04/11 03:02:11;;;;;;;10.47;10.17;;;9.30;99.90;;;;;;5064273;28;20238;-81
2023/04/11 03:04:42;;;;;;;10.50;10.20;;;9.30;99.90;;;;;;5064901;28;20242;-80
2023/04/11 03:07:12;;;;;;;10.80;10.50;;;9.30;99.90;;;;;;5073551;28;20234;-81
2023/04/11 03:09:40;;;;;;;10.83;10.53;;;9.30;99.90;;;;;;5067953;28;20316;-81
2023/04/11 03:12:09;;;;;;;10.60;10.30;;;9.20;99.90;;;;;;5067109;28;20242;-81
2023/04/11 03:14:38;;;;;;;10.50;10.20;;;9.20;99.90;;;;;;5066342;28;20357;-81
2023/04/11 03:17:07;;;;;;;10.50;10.20;;;9.30;99.90;;;;;;5066436;28;20317;-81
2023/04/11 03:19:37;;;;;;;10.50;10.20;;;9.30;99.90;;;;;;5066110;28;20803;-81
2023/04/11 03:22:07;;;;;;;10.77;10.47;;;9.30;99.90;;;;;;5076102;28;20299;-81
2023/04/11 03:24:39;;;;;;;10.50;10.20;;;9.30;99.90;;;;;;5072450;28;20344;-81
2023/04/11 03:27:07;;;;;;;10.53;10.23;;;9.30;99.90;;;;;;5067031;28;20231;-82
2023/04/11 03:29:34;;;;;;;10.50;10.20;;;9.30;99.90;;;;;;5066445;28;20350;-82
2023/04/11 03:32:02;;;;;;;10.40;10.10;;;9.30;99.90;;;;;;5064454;28;20258;-82
2023/04/11 03:34:35;;;;;;;10.50;10.20;;;9.30;99.90;;;;;;5064944;28;20245;-82
2023/04/11 03:37:03;;;;;;;10.13;9.83;;;9.20;99.90;;;;;;5064546;28;20223;-81
2023/04/11 03:39:34;;;;;;;10.40;10.10;;;9.30;99.90;;;;;;5062669;28;20241;-81
2023/04/11 03:42:05;;;;;;;10.40;10.10;;;9.30;99.90;;;;;;5064542;28;20300;-82
2023/04/11 03:44:32;;;;;;;10.60;10.30;;;9.30;99.90;;;;;;5066704;28;20261;-82
2023/04/11 03:47:01;;;;;;;10.60;10.30;;;9.30;99.90;;;;;;5066092;28;20226;-82
2023/04/11 03:49:30;;;;;;;10.80;10.50;;;9.30;99.90;;;;;;5064839;28;20230;-81
2023/04/11 03:51:59;;;;;;;10.57;10.27;;;9.20;99.90;;;;;;5063984;28;20273;-81
2023/04/11 03:54:29;;;;;;;10.50;10.20;;;9.20;99.90;;;;;;5063813;28;20233;-82
2023/04/11 03:56:57;;;;;;;10.63;10.33;;;9.30;99.90;;;;;;5064191;28;20227;-81
2023/04/11 03:59:30;;;;;;;10.73;10.40;;;9.30;99.90;;;;;;5063114;28;20245;-82
2023/04/11 04:01:59;;;;;;;10.83;10.53;;;9.40;99.90;;;;;;5063042;28;20239;-82
2023/04/11 04:04:28;;;;;;;11.10;10.70;;;9.40;99.90;;;;;;5063419;28;20310;-82
2023/04/11 04:06:58;;;;;;;10.70;10.40;;;9.30;99.90;;;;;;5063335;28;20289;-81
2023/04/11 04:09:27;;;;;;;10.67;10.37;;;9.30;99.90;;;;;;5062981;28;20294;-82
2023/04/11 04:11:57;;;;;;;10.97;10.57;;;9.30;99.90;;;;;;5066545;28;20239;-82
2023/04/11 04:14:27;;;;;;;10.93;10.53;;;9.30;99.90;;;;;;5066470;28;20250;-81
2023/04/11 04:16:56;;;;;;;11.00;10.60;;;9.20;99.90;;;;;;5065289;28;20257;-82
2023/04/11 04:19:25;;;;;;;10.83;10.50;;;9.20;99.90;;;;;;5064819;28;20241;-82
2023/04/11 04:21:56;;;;;;;10.60;10.30;;;9.20;99.90;;;;;;5064225;28;20246;-82
2023/04/11 04:24:25;;;;;;;10.93;10.53;;;9.20;99.90;;;;;;5064067;28;20239;-82
2023/04/11 04:26:56;;;;;;;11.00;10.60;;;9.20;99.90;;;;;;5063932;28;20319;-81
2023/04/11 04:29:32;;;;;;;11.10;10.70;;;9.20;99.90;;;;;;5063553;28;20223;-81
2023/04/11 04:32:09;;;;;;;11.20;10.80;;;9.20;99.90;;;;;;5062323;28;20242;-81
2023/04/11 04:34:40;;;;;;;11.07;10.67;;;9.20;99.90;;;;;;5063414;28;20241;-82
2023/04/11 04:37:20;;;;;;;10.93;10.53;;;9.20;99.90;;;;;;5063020;28;20235;-81
2023/04/11 04:39:56;;;;;;;10.70;10.40;;;9.20;99.90;;;;;;5062607;28;20263;-81
2023/04/11 04:42:26;;;;;;;10.77;10.47;;;9.20;99.90;;;;;;5063146;28;20266;-81
2023/04/11 04:44:55;;;;;;;10.80;10.50;;;9.20;99.90;;;;;;5062261;28;20257;-82
2023/04/11 04:47:33;;;;;;;11.10;10.70;;;9.20;99.90;;;;;;5062765;28;20253;-81
2023/04/11 04:50:02;;;;;;;11.00;10.60;;;9.20;99.90;;;;;;5062910;28;20222;-81
2023/04/11 04:52:32;;;;;;;10.73;10.43;;;9.30;99.90;;;;;;5104526;22;20245;-86
2023/04/11 04:55:02;;;;;;;10.83;10.50;;;9.30;99.90;;;;;;5100963;28;20279;-86
2023/04/11 04:57:33;;;;;;;11.30;10.90;;;9.30;99.90;;;;;;5098294;28;20485;-88
2023/04/11 05:00:10;;;;;;;11.30;10.90;;;9.30;99.90;;;;;;5124139;27;20232;-87
2023/04/11 05:02:42;;;;;;;11.10;10.70;;;9.40;99.90;;;;;;5128873;27;20295;-86
2023/04/11 05:05:12;;;;;;;10.70;10.40;;;9.50;99.90;;;;;;5140923;27;20263;-86
2023/04/11 05:07:40;;;;;;;11.00;10.70;;;9.50;99.90;;;;;;5140720;27;20234;-87
2023/04/11 05:10:09;;;;;;;11.10;10.70;;;9.60;99.90;;;;;;5132574;27;20216;-87
2023/04/11 05:12:37;;;;;;;10.70;10.40;;;9.60;99.90;;;;;;5147997;27;20235;-86
2023/04/11 05:15:10;;;;;;;10.57;10.27;;;9.60;99.90;;;;;;5148035;27;20228;-86
2023/04/11 05:20:23;;;;;;;10.60;10.30;;;9.60;99.90;;;;;;5143168;27;20226;-86
2023/04/11 05:22:52;;;;;;;10.60;10.30;;;9.50;99.90;;;;;;5146092;27;20243;-85
2023/04/11 05:25:21;;;;;;;9.90;9.60;;;9.40;99.90;;;;;;5158647;27;20212;-87
2023/04/11 05:30:41;;;;;;;10.10;9.80;;;8.70;99.90;;;;;;5161683;27;20242;-87
2023/04/11 05:33:52;;;;;;;10.03;9.73;;;8.50;99.90;;;;;;5161816;27;20297;-87
2023/04/11 05:36:30;;;;;;;10.40;10.10;;;8.30;99.90;;;;;;5162216;27;20227;-85
2023/04/11 05:38:59;;;;;;;10.20;9.90;;;8.20;99.90;;;;;;5162802;27;20216;-85
2023/04/11 05:41:29;;;;;;;10.33;10.03;;;8.10;99.90;;;;;;5165439;27;20211;-85
2023/04/11 05:47:11;;;;;;;11.50;11.10;;;8.00;99.90;;;;;;5147039;27;20231;-88
2023/04/11 05:49:50;;;;;;;10.50;10.20;;;7.90;99.90;;;;;;5128487;28;20228;-86
2023/04/11 05:52:27;;;;;;;10.00;9.70;;;7.80;99.90;;;;;;5130674;28;20225;-85
2023/04/11 05:55:00;;;;;;;10.30;10.00;;;7.80;99.90;;;;;;5126069;28;20216;-85
2023/04/11 06:00:17;;;;;;;10.17;9.87;;;7.80;99.90;;;;;;5130668;28;20951;-86
2023/04/11 06:02:45;;;;;;;10.20;9.90;;;7.80;99.90;;;;;;5129743;28;20297;-85
2023/04/11 06:05:15;;;;;;;10.10;9.80;;;7.80;99.90;;;;;;5138013;27;20237;-84
2023/04/11 06:07:46;;;;;;;10.20;9.90;;;7.80;99.90;;;;;;5143745;27;20219;-85
2023/04/11 06:10:14;;;;;;;10.00;9.70;;;7.80;99.90;;;;;;5142976;27;20205;-85
2023/04/11 06:12:42;;;;;;;9.80;9.50;;;7.80;99.90;;;;;;5141840;27;20231;-85
2023/04/11 06:15:12;;;;;;;10.20;9.90;;;7.80;99.90;;;;;;5144859;27;20224;-85
2023/04/11 06:17:42;;;;;;;10.00;9.70;;;7.80;99.90;;;;;;5149822;27;20228;-85
2023/04/11 06:20:10;;;;;;;10.50;10.20;;;7.80;99.90;;;;;;5141089;27;20317;-86
2023/04/11 06:22:40;;;;;;;10.20;9.90;;;7.80;99.90;;;;;;5145774;27;20208;-86
2023/04/11 06:25:18;;;;;;;10.40;10.10;;;7.80;99.90;;;;;;5143778;27;20224;-86
2023/04/11 06:27:50;;;;;;;10.23;9.93;;;7.90;99.90;;;;;;5144484;27;20224;-85
2023/04/11 06:30:17;;;;;;;10.20;9.90;;;7.90;99.90;;;;;;5144490;27;20226;-86
2023/04/11 06:32:46;;;;;;;10.03;9.73;;;7.90;99.90;;;;;;5145318;27;20247;-86
2023/04/11 06:35:19;;;;;;;9.90;9.60;;;8.00;99.90;;;;;;5148003;27;20251;-86
2023/04/11 06:37:47;;;;;;;10.00;9.70;;;8.00;99.90;;;;;;5149872;27;20240;-85
2023/04/11 06:40:24;;;;;;;10.20;9.90;;;8.00;99.90;;;;;;5146631;27;20228;-86
2023/04/11 06:42:54;;;;;;;10.33;10.03;;;8.00;99.90;;;;;;5148935;27;20262;-86
2023/04/11 06:45:23;;;;;;;10.40;10.10;;;8.10;99.90;;;;;;5145654;27;20313;-85
2023/04/11 06:47:53;;;;;;;10.00;9.70;;;8.10;99.90;;;;;;5142322;27;20248;-85
2023/04/11 06:50:22;;;;;;;10.40;10.10;;;8.10;99.90;;;;;;5129309;27;20217;-84
2023/04/11 06:55:38;;;;;;;10.40;10.10;;;8.20;99.90;;;;;;5119747;27;20235;-85
2023/04/11 06:58:07;;;;;;;10.00;9.70;;;8.20;99.90;;;;;;5139821;27;20227;-84
2023/04/11 07:00:38;;;;;;;10.00;9.70;;;8.30;99.90;;;;;;5129318;28;20232;-84
2023/04/11 07:03:09;;;;;;;10.33;10.03;;;8.20;99.90;;;;;;5129979;28;20243;-84
2023/04/11 07:05:36;;;;;;;10.40;10.10;;;8.30;99.90;;;;;;5128681;28;20255;-83
2023/04/11 07:08:07;;;;;;;10.37;10.07;;;8.30;99.90;;;;;;5130049;28;20233;-83
2023/04/11 07:10:37;;;;;;;10.20;9.90;;;8.40;99.90;;;;;;5128154;28;20213;-86
2023/04/11 07:13:14;;;;;;;10.00;9.70;;;8.40;99.90;;;;;;5127898;28;20251;-83
2023/04/11 07:15:42;;;;;;;10.10;9.80;;;8.50;99.90;;;;;;5127396;28;20282;-82
2023/04/11 07:18:12;;;;;;;10.30;10.00;;;8.50;99.90;;;;;;5127485;28;20312;-82
2023/04/11 07:20:41;;;;;;;10.40;10.10;;;8.60;99.90;;;;;;5127217;28;20228;-83
2023/04/11 07:23:14;;;;;;;10.33;10.03;;;8.60;99.90;;;;;;5127066;28;20323;-84
2023/04/11 07:25:53;;;;;;;10.80;10.50;;;8.60;99.90;;;;;;5129265;28;20233;-85
2023/04/11 07:28:21;;;;;;;10.70;10.40;;;8.50;99.90;;;;;;5129101;28;20220;-85
2023/04/11 07:30:48;;;;;;;10.37;10.07;;;8.50;99.90;;;;;;5125922;28;20236;-84
2023/04/11 07:33:18;;;;;;;10.60;10.30;;;8.50;99.90;;;;;;5131806;28;20217;-85
2023/04/11 07:35:47;;;;;;;10.20;9.90;;;8.50;99.90;;;;;;5129718;28;20228;-85
2023/04/11 07:38:28;;;;;;;10.40;10.10;;;8.50;99.90;;;;;;5128661;28;20229;-85
2023/04/11 07:41:03;;;;;;;10.23;9.93;;;8.50;99.90;;;;;;5139228;28;20197;-83
2023/04/11 07:43:32;;;;;;;10.57;10.27;;;8.50;99.90;;;;;;5142759;28;20204;-84
2023/04/11 07:46:03;;;;;;;10.50;10.20;;;8.60;99.90;;;;;;5141485;28;20247;-86
2023/04/11 07:48:34;;;;;;;10.50;10.20;;;8.70;99.90;;;;;;5128871;28;20231;-84
2023/04/11 07:51:02;;;;;;;10.30;10.00;;;8.80;99.90;;;;;;5122822;28;20717;-86
2023/04/11 07:53:31;;;;;;;10.57;10.27;;;8.70;99.90;;;;;;5120397;28;20316;-83
2023/04/11 07:58:48;;;;;;;10.70;10.40;;;8.90;99.90;;;;;;5126246;28;20220;-86
2023/04/11 08:01:28;;;;;;;10.40;10.10;;;9.00;99.90;;;;;;5126231;27;20241;-85
2023/04/11 08:03:58;;;;;;;10.00;9.70;;;9.10;99.90;;;;;;5125552;28;20298;-84
2023/04/11 08:06:35;;;;;;;10.07;9.77;;;9.10;99.90;;;;;;5123995;28;20259;-85
2023/04/11 08:09:04;;;;;;;10.23;9.93;;;9.10;99.90;;;;;;5127525;28;20263;-84
2023/04/11 08:11:43;;;;;;;10.27;9.97;;;9.00;99.90;;;;;;5127284;28;20224;-84
2023/04/11 08:14:21;;;;;;;10.10;9.80;;;8.90;99.90;;;;;;5125432;28;20225;-84
2023/04/11 08:17:03;;;;;;;10.20;9.90;;;9.00;99.90;;;;;;5121837;28;20233;-84
2023/04/11 08:19:36;;;;;;;9.93;9.63;;;9.00;99.90;;;;;;5124799;28;20323;-84
2023/04/11 08:22:06;;;;;;;10.07;9.77;;;8.90;99.90;;;;;;5126933;28;20242;-84
2023/04/11 08:24:36;;;;;;;9.90;9.60;;;8.90;99.90;;;;;;5125292;28;20244;-86
2023/04/11 08:27:08;;;;;;;9.53;9.23;;;8.90;99.90;;;;;;5125686;28;20221;-86
2023/04/11 08:29:36;;;;;;;9.30;9.00;;;9.00;99.90;;;;;;5128202;28;20376;-85
2023/04/11 08:32:05;;;;;;;9.57;9.27;;;9.10;99.90;;;;;;5130935;27;20228;-85
2023/04/11 08:34:33;;;;;;;10.20;9.90;;;9.20;99.90;;;;;;5099549;28;20232;-84
2023/04/11 08:37:03;;;;;;;9.90;9.60;;;9.20;99.90;;;;;;5104061;28;20287;-86
2023/04/11 08:39:32;;;;;;;10.30;10.00;;;9.20;99.90;;;;;;5108973;28;20253;-86
2023/04/11 08:42:01;;;;;;;9.90;9.60;;;9.30;99.90;;;;;;5107487;28;20301;-86
2023/04/11 08:47:19;;;;;;;9.90;9.60;;;9.40;99.90;;;;;;5108431;28;20279;-85
2023/04/11 08:49:48;;;;;;;10.20;9.90;;;9.40;99.90;;;;;;5107888;28;20264;-84
2023/04/11 08:52:18;;;;;;;10.40;10.10;;;9.50;99.90;;;;;;5105543;28;20241;-87
2023/04/11 08:54:55;;;;;;;10.10;9.80;;;9.70;99.90;;;;;;5100236;28;20221;-86
2023/04/11 08:57:35;;;;;;;10.00;9.70;;;9.80;99.90;;;;;;5104511;28;20316;-85
2023/04/11 09:03:22;;;;;;;10.00;9.70;;;10.10;99.90;;;;;;5119210;27;20216;-83
2023/04/11 09:05:56;;;;;;;9.97;9.67;;;10.50;99.90;;;;;;5120322;27;20205;-83
2023/04/11 09:11:38;;;;;;;10.10;9.80;;;11.00;99.90;;;;;;5101928;27;20232;-84
2023/04/11 09:20:28;;;;;;;9.77;9.47;;;10.80;99.90;;;;;;5084235;28;20244;-85
2023/04/11 09:23:03;;;;;;;9.60;9.30;;;10.70;99.90;;;;;;5084558;28;20242;-88
2023/04/11 09:25:47;;;;;;;10.00;9.70;;;10.30;99.90;;;;;;5103671;28;20320;-86
2023/04/11 09:30:58;;;;;;;10.03;9.73;;;9.70;99.90;;;;;;5098314;28;20224;-87
2023/04/11 09:33:32;;;;;;;10.10;9.80;;;9.90;99.90;;;;;;5100279;28;20284;-87
2023/04/11 09:36:06;;;;;;;9.60;9.30;;;10.30;99.90;;;;;;5099598;28;20229;-85
2023/04/11 09:38:36;;;;;;;9.47;9.17;;;10.60;99.90;;;;;;5100391;28;20284;-85
2023/04/11 09:41:07;;;;;;;9.63;9.33;;;10.90;99.90;;;;;;5103716;28;20516;-85
2023/04/11 09:43:51;;;;;;;9.50;9.20;;;11.00;99.90;;;;;;5099014;28;20237;-85
2023/04/11 09:46:20;;;;;;;9.57;9.27;;;10.80;99.90;;;;;;5094554;28;20310;-86
2023/04/11 09:49:00;;;;;;;9.60;9.30;;;10.50;99.90;;;;;;5099369;28;20309;-87
2023/04/11 09:51:29;;;;;;;9.70;9.40;;;10.40;99.90;;;;;;5089221;28;20244;-86
2023/04/11 09:53:58;;;;;;;10.20;9.90;;;10.50;99.90;;;;;;5100358;28;20237;-87
2023/04/11 09:56:29;;;;;;;10.60;10.30;;;10.60;99.90;;;;;;5080842;28;20238;-87
2023/04/11 09:58:59;;;;;;;10.17;9.87;;;10.70;99.90;;;;;;5086051;28;20206;-87
2023/04/11 10:01:42;;;;;;;10.73;10.43;;;11.00;99.90;;;;;;5099353;28;20244;-86
2023/04/11 10:04:16;;;;;;;10.77;10.47;;;11.20;99.90;;;;;;5082625;28;20234;-85
2023/04/11 10:07:06;;;;;;;10.23;9.93;;;11.30;99.90;;;;;;5081065;28;20541;-85
2023/04/11 10:09:51;;;;;;;10.43;10.13;;;11.40;99.90;;;;;;5088455;28;20226;-86
2023/04/11 10:12:37;;;;;;;10.57;10.27;;;11.60;99.90;;;;;;5089836;28;20297;-87
2023/04/11 10:15:14;;;;;;;10.60;10.30;;;11.90;99.90;;;;;;5095549;28;20321;-86
2023/04/11 10:17:45;;;;;;;10.20;9.90;;;12.30;99.90;;;;;;5086219;28;20237;-85
2023/04/11 10:24:11;;;;;;;10.50;10.20;;;12.30;99.90;;;;;;4996964;28;20236;-86
2023/04/11 10:26:50;;;;;;;10.40;10.10;;;12.60;99.90;;;;;;5008594;28;20262;-85
2023/04/11 10:29:53;;;;;;;10.20;9.90;;;12.80;99.90;;;;;;5096695;28;20218;-85
2023/04/11 10:32:24;;;;;;;10.30;10.00;;;12.60;99.90;;;;;;5063104;28;20233;-85
2023/04/11 10:35:28;;;;;;;10.50;10.20;;;12.30;99.90;;;;;;5087213;28;20230;-86
2023/04/11 10:38:06;;;;;;;10.33;10.03;;;12.20;99.90;;;;;;5092071;28;20303;-85
2023/04/11 10:40:35;;;;;;;10.60;10.30;;;12.20;99.90;;;;;;5104087;28;20291;-85
2023/04/11 10:43:31;;;;;;;10.60;10.30;;;12.30;99.90;;;;;;5108439;28;20255;-85
2023/04/11 10:46:18;;;;;;;10.50;10.20;;;12.70;99.90;;;;;;5105144;28;20236;-84
2023/04/11 10:48:59;;;;;;;10.90;10.60;;;13.10;99.90;;;;;;5096471;28;20236;-84
2023/04/11 10:51:28;;;;;;;10.40;10.10;;;13.30;99.90;;;;;;5097134;28;20237;-83
2023/04/11 10:53:58;;;;;;;10.70;10.40;;;13.80;99.90;;;;;;5077434;22;20254;-78
2023/04/11 10:56:56;;;;;;;10.70;10.40;;;14.20;99.90;;;;;;5061927;28;20227;-80
2023/04/11 11:00:10;;;;;;;10.60;10.30;;;14.30;99.90;;;;;;4987133;28;20265;-80
2023/04/11 11:02:43;;;;;;;10.60;10.30;;;14.20;99.90;;;;;;5063942;28;20234;-82
2023/04/11 11:05:21;;;;;;;10.27;9.97;;;14.10;99.90;;;;;;5051881;28;20228;-81
2023/04/11 11:07:51;;;;;;;10.20;9.90;;;14.30;99.90;;;;;;5043803;28;20249;-81
2023/04/11 11:10:44;;;;;;;9.97;9.67;;;13.70;99.90;;;;;;5066895;28;20242;-80
2023/04/11 11:13:15;;;;;;;10.53;10.23;;;13.50;99.90;;;;;;5055684;28;20299;-80
2023/04/11 11:15:56;;;;;;;10.20;9.90;;;13.10;99.90;;;;;;5058754;28;20256;-81
2023/04/11 11:18:24;;;;;;;10.10;9.80;;;13.00;99.90;;;;;;5023735;28;20235;-79
2023/04/11 11:20:58;;;;;;;9.97;9.67;;;12.80;99.90;;;;;;5049720;28;20245;-79
2023/04/11 11:23:25;;;;;;;9.90;9.60;;;12.70;99.90;;;;;;5064808;28;20230;-79
2023/04/11 11:25:57;;;;;;;9.80;9.50;;;12.90;99.90;;;;;;5065254;28;20253;-80
2023/04/11 11:28:26;;;;;;;10.00;9.70;;;13.10;99.90;;;;;;5050590;28;20238;-81
2023/04/11 11:30:59;;;;;;;10.33;10.03;;;12.80;99.90;;;;;;5048775;28;20301;-80
2023/04/11 11:33:28;;;;;;;10.23;9.93;;;12.80;99.90;;;;;;5051936;28;20227;-80
2023/04/11 11:35:58;;;;;;;10.30;10.00;;;12.90;99.90;;;;;;5051099;28;20219;-80
2023/04/11 11:38:28;;;;;;;10.47;10.17;;;13.00;99.90;;;;;;5045364;28;20278;-79
2023/04/11 11:41:13;;;;;;;10.33;10.03;;;13.40;99.90;;;;;;5042469;28;20272;-79
2023/04/11 11:43:43;;;;;;;10.40;10.10;;;13.70;99.90;;;;;;5060402;28;20329;-79
2023/04/11 11:46:13;;;;;;;10.20;9.90;;;14.00;99.90;;;;;;5040883;28;20795;-80
2023/04/11 11:48:43;;;;;;;10.37;10.07;;;14.40;99.90;;;;;;5037614;28;20267;-79
2023/04/11 11:51:11;;;;;;;10.30;10.00;;;14.20;99.90;;;;;;5040702;28;20243;-81
2023/04/11 11:53:42;;;;;;;10.40;10.10;;;14.10;99.90;;;;;;5059589;28;20249;-79
2023/04/11 11:56:45;;;;;;;10.17;9.87;;;14.30;99.90;;;;;;5055104;28;20229;-80
2023/04/11 11:59:13;;;;;;;10.03;9.73;;;14.70;99.90;;;;;;5050838;28;20227;-80
2023/04/11 12:01:42;;;;;;;10.30;10.00;;;14.40;99.90;;;;;;5042725;28;20381;-80
2023/04/11 12:04:11;;;;;;;10.40;10.10;;;14.10;99.90;;;;;;5053495;28;20315;-81
2023/04/11 12:06:39;;;;;;;10.03;9.73;;;14.00;99.90;;;;;;5045737;28;20230;-81
2023/04/11 12:09:12;;;;;;;10.40;10.10;;;14.60;99.90;;;;;;5043665;28;20258;-80
2023/04/11 12:11:45;;;;;;;10.30;10.00;;;15.20;99.90;;;;;;5044134;28;20235;-80
2023/04/11 12:14:23;;;;;;;10.07;9.77;;;15.10;99.90;;;;;;5053022;28;20263;-80
2023/04/11 12:16:54;;;;;;;10.40;10.10;;;14.80;99.90;;;;;;5044851;28;20238;-82
2023/04/11 12:19:22;;;;;;;10.07;9.77;;;14.80;99.90;;;;;;5028297;28;20291;-81
2023/04/11 12:21:52;;;;;;;10.23;9.93;;;14.90;99.90;;;;;;5053952;28;20235;-80
2023/04/11 12:24:20;;;;;;;10.15;9.85;;;15.20;99.90;;;;;;5058078;28;20242;-80
2023/04/11 12:26:50;;;;;;;10.43;10.13;;;15.10;99.90;;;;;;5040317;28;20243;-80
2023/04/11 12:29:19;;;;;;;10.20;9.90;;;14.10;99.90;;;;;;5026906;28;20228;-79
2023/04/11 12:31:48;;;;;;;10.25;9.95;;;14.10;99.90;;;;;;5043529;28;20351;-80
2023/04/11 12:34:16;;;;;;;10.60;10.30;;;14.10;99.90;;;;;;5028116;28;20325;-80
2023/04/11 12:36:46;;;;;;;10.67;10.37;;;13.60;99.90;;;;;;5038092;28;20235;-80
2023/04/11 12:39:15;;;;;;;10.53;10.23;;;13.50;99.90;;;;;;5050090;28;20273;-81
2023/04/11 12:41:43;;;;;;;10.90;10.60;;;13.50;99.90;;;;;;5059458;28;20293;-82
2023/04/11 12:44:16;;;;;;;10.30;10.00;;;13.40;99.90;;;;;;5043985;28;20228;-80
2023/04/11 12:46:48;;;;;;;10.37;10.07;;;13.30;99.90;;;;;;5044596;28;20223;-81
2023/04/11 12:49:16;;;;;;;10.40;10.10;;;13.20;99.90;;;;;;5031463;28;20258;-80
2023/04/11 12:51:44;;;;;;;9.90;9.60;;;13.10;99.90;;;;;;5048165;28;20286;-80
2023/04/11 12:54:15;;;;;;;9.93;9.63;;;13.00;99.90;;;;;;5053390;28;20239;-80
2023/04/11 12:56:43;;;;;;;10.13;9.83;;;12.90;99.90;;;;;;5049872;28;20228;-81
2023/04/11 12:59:12;;;;;;;10.30;10.00;;;13.00;99.90;;;;;;5045368;28;20256;-81
2023/04/11 13:01:42;;;;;;;10.60;10.30;;;13.20;99.90;;;;;;5043069;28;20271;-81
2023/04/11 13:04:13;;;;;;;10.07;9.77;;;13.40;99.90;;;;;;5063713;28;20266;-80
2023/04/11 13:06:41;;;;;;;10.20;9.90;;;13.90;99.90;;;;;;5062506;28;20219;-81
2023/04/11 13:09:12;;;;;;;9.90;9.60;;;14.20;99.90;;;;;;5047612;28;20335;-81
2023/04/11 13:11:40;;;;;;;10.13;9.82;;;14.50;99.90;;;;;;5044779;28;20329;-81
2023/04/11 13:14:10;;;;;;;10.20;9.90;;;14.50;99.90;;;;;;5036148;28;20244;-81
2023/04/11 13:16:39;;;;;;;10.02;9.73;;;14.60;99.90;;;;;;5042427;28;20244;-80
2023/04/11 13:19:08;;;;;;;10.00;9.70;;;14.30;99.90;;;;;;5046783;28;20258;-80
2023/04/11 13:21:38;;;;;;;10.53;10.23;;;14.10;99.90;;;;;;5046611;28;20239;-80
2023/04/11 13:24:08;;;;;;;10.50;10.20;;;14.10;99.90;;;;;;5044887;28;20332;-80
2023/04/11 13:26:37;;;;;;;10.20;9.90;;;14.30;99.90;;;;;;5045584;28;20241;-81
2023/04/11 13:29:06;;;;;;;10.70;10.40;;;14.40;99.90;;;;;;5039744;28;20799;-81
2023/04/11 13:31:35;;;;;;;9.90;9.60;;;14.40;99.90;;;;;;5041601;28;20254;-81
2023/04/11 13:34:05;;;;;;;10.40;10.10;;;14.80;99.90;;;;;;5048002;28;20281;-81
2023/04/11 13:36:32;;;;;;;10.23;9.93;;;15.00;99.90;;;;;;5045930;28;20239;-82
2023/04/11 13:39:07;;;;;;;10.10;9.80;;;15.40;99.90;;;;;;5046036;28;20258;-80
2023/04/11 13:41:35;;;;;;;10.30;10.00;;;15.60;99.90;;;;;;5037687;28;20247;-80